Sainte-Agathe-Des-Monts, Canada
Current Conditions -  °F | °C
As of 5:00 PM on Tuesday 25 Nov 2014 (Local Time) from CYMX Reporting Station
Overcast Overcast  
Wind Chill: 33°   Ceiling: 6500
Heat Index: 41°   Visibility: 25mi
Dew Point: 28°   Wind: 15mph
Humidity: 61%   Direction: 240°WSW
Pressure: 29.86"   Gusts: 30mph
Location:  46.03°N, 74.28°W
Report Text: CYMX 252200Z 24013G26KT 25SM SCT040 BKN065 OVC095 05/M02 A2986 RMK SC3SC3AC2 SLP113
Loading
Personal Weather Stations






























Interactive Weather Map New forecast layout! Learn more

10-Day Weather Forecast

Advertisements
Track Severe Weather on mobile